< Typhoon 199027 1990 Season Typhoon 199029 >
Typhoon 199028 (PAGE)
General InformationTrack Information on Google MapsDetailed Wind InformationList of All Images || NewsDisaster Info.ResourceGoogle EarthGE AnimationAtom FeedGeoJSON
Detalied Best Track (Time Zone = UTC)
Year Month Day Hour Lat. Long. Pressure (hPa) Wind (kt) Class Image Chart
1990 11 21 00 7.5 145.4 1000 0 2 Image Chart
1990 11 21 06 8.2 145.3 1000 0 2 Image Chart
1990 11 21 12 9.0 145.0 1000 0 2 Image Chart
1990 11 21 18 9.5 144.0 1000 0 2 Image Chart
1990 11 22 00 9.9 143.6 1000 0 2 Image Chart
1990 11 22 06 10.2 143.3 998 35 3 Image Chart
1990 11 22 12 10.7 142.9 996 40 3 Image Chart
1990 11 22 18 11.5 142.0 992 45 3 Image Chart
1990 11 23 00 12.3 141.2 990 50 4 Image Chart
1990 11 23 06 12.5 140.5 985 55 4 Image Chart
1990 11 23 12 12.5 140.0 985 55 4 Image Chart
1990 11 23 18 12.2 138.9 980 55 4 Image Chart
1990 11 24 00 11.9 138.2 975 60 4 Image Chart
1990 11 24 06 11.9 137.4 975 60 4 Image Chart
1990 11 24 12 11.9 136.2 965 70 5 Image Chart
1990 11 24 18 11.9 135.2 965 70 5 Image Chart
1990 11 25 00 11.9 134.3 960 75 5 Image Chart
1990 11 25 06 11.9 133.4 950 80 5 Image Chart
1990 11 25 12 12.0 132.5 940 85 5 Image Chart
1990 11 25 18 12.2 131.7 935 90 5 Image Chart
1990 11 26 00 12.4 130.9 930 95 5 Image Chart
1990 11 26 06 12.6 130.0 920 100 5 Image Chart
1990 11 26 12 13.1 129.2 915 100 5 Image Chart
1990 11 26 18 13.9 128.3 915 100 5 Image Chart
1990 11 27 00 14.6 127.4 910 105 5 Image Chart
1990 11 27 06 15.5 126.7 910 105 5 Image Chart
1990 11 27 12 16.4 126.2 910 105 5 Image Chart
1990 11 27 18 17.3 125.9 915 100 5 Image Chart
1990 11 28 00 18.4 126.1 930 90 5 Image Chart
1990 11 28 06 19.5 126.4 935 90 5 Image Chart
1990 11 28 12 20.9 127.2 940 85 5 Image Chart
1990 11 28 18 22.3 128.3 945 85 5 Image Chart
1990 11 29 00 23.8 129.4 950 80 5 Image Chart
1990 11 29 06 25.4 130.6 960 75 5 Image Chart
1990 11 29 12 27.6 132.2 965 70 5 Image Chart
1990 11 29 18 29.7 133.9 970 65 5 Image Chart
1990 11 30 00 31.7 135.0 970 65 5 Image Chart
1990 11 30 06 33.6 135.8 975 55 4 Image Chart
1990 11 30 09 34.5 136.5 980 0 6 Image Chart
1990 11 30 12 36.0 137.0 984 0 6 Image Chart
1990 11 30 18 39.0 139.0 988 0 6 Image Chart
1990 12 1 00 41.0 140.0 988 0 6 Image Chart
1990 12 1 06 43.0 142.0 992 0 6 Image Chart
1990 12 1 12 45.0 144.0 992 0 6 Image Chart
1990 12 1 18 47.0 146.0 990 0 6 Image Chart
1990 12 2 00 49.0 148.0 990 0 6 Image Chart
1990 12 2 06 51.0 150.0 988 0 6 Image Chart
1990 12 2 12 52.0 152.0 982 0 6 Image Chart
1990 12 2 18 53.0 153.0 976 0 6 Image Chart
1990 12 3 00 54.0 154.0 976 0 6 Image Chart
1990 12 3 06 54.0 155.0 976 0 6 Image Chart
1990 12 3 12 54.0 156.0 976 0 6 Image Chart
Japan Meteorological Agency Best Track Data | Correction Date : 1992-10-21
< Typhoon 199027 1990 Season Typhoon 199029 >

Help